sensor_id;sensor_type;location;lat;lon;timestamp;P1;durP1;ratioP1;P2;durP2;ratioP2
42144;SDS011;27813;43.516;11.890;2023-06-26T04:36:22;5.03;;;2.90;;
42144;SDS011;27813;43.516;11.890;2023-06-26T04:40:36;4.55;;;3.22;;
42144;SDS011;27813;43.516;11.890;2023-06-26T04:44:41;3.78;;;3.00;;
42144;SDS011;27813;43.516;11.890;2023-06-26T04:48:45;4.45;;;3.10;;
42144;SDS011;27813;43.516;11.890;2023-06-26T04:52:50;4.07;;;2.88;;
42144;SDS011;27813;43.516;11.890;2023-06-26T04:56:58;4.47;;;3.33;;
42144;SDS011;27813;43.516;11.890;2023-06-26T05:01:16;5.68;;;3.28;;
42144;SDS011;27813;43.516;11.890;2023-06-26T05:05:20;9.88;;;5.57;;
42144;SDS011;27813;43.516;11.890;2023-06-26T05:09:24;14.20;;;6.72;;
42144;SDS011;27813;43.516;11.890;2023-06-26T05:13:30;12.75;;;7.40;;
42144;SDS011;27813;43.516;11.890;2023-06-26T05:17:35;14.05;;;8.32;;
42144;SDS011;27813;43.516;11.890;2023-06-26T05:21:39;13.30;;;7.25;;
42144;SDS011;27813;43.516;11.890;2023-06-26T05:25:45;14.60;;;6.85;;
42144;SDS011;27813;43.516;11.890;2023-06-26T05:29:50;10.60;;;6.43;;
42144;SDS011;27813;43.516;11.890;2023-06-26T05:33:55;10.68;;;6.70;;
42144;SDS011;27813;43.516;11.890;2023-06-26T05:38:02;8.43;;;4.97;;
42144;SDS011;27813;43.516;11.890;2023-06-26T05:42:07;8.63;;;4.85;;
42144;SDS011;27813;43.516;11.890;2023-06-26T05:46:12;8.75;;;5.60;;
42144;SDS011;27813;43.516;11.890;2023-06-26T05:50:17;6.00;;;4.30;;
42144;SDS011;27813;43.516;11.890;2023-06-26T05:54:23;7.97;;;4.45;;
42144;SDS011;27813;43.516;11.890;2023-06-26T05:58:29;11.48;;;4.95;;
42144;SDS011;27813;43.516;11.890;2023-06-26T06:02:34;9.48;;;5.22;;
42144;SDS011;27813;43.516;11.890;2023-06-26T06:06:39;7.28;;;3.53;;
42144;SDS011;27813;43.516;11.890;2023-06-26T06:10:43;5.20;;;3.55;;
42144;SDS011;27813;43.516;11.890;2023-06-26T06:14:49;4.50;;;3.53;;
42144;SDS011;27813;43.516;11.890;2023-06-26T06:18:55;4.78;;;3.13;;
42144;SDS011;27813;43.516;11.890;2023-06-26T06:22:59;4.70;;;3.05;;
42144;SDS011;27813;43.516;11.890;2023-06-26T06:27:04;4.47;;;3.03;;
42144;SDS011;27813;43.516;11.890;2023-06-26T06:31:09;4.78;;;3.33;;
42144;SDS011;27813;43.516;11.890;2023-06-26T06:35:13;3.45;;;2.90;;
42144;SDS011;27813;43.516;11.890;2023-06-26T06:39:18;4.18;;;3.00;;
42144;SDS011;27813;43.516;11.890;2023-06-26T06:43:22;5.75;;;3.05;;
42144;SDS011;27813;43.516;11.890;2023-06-26T06:47:26;6.45;;;3.05;;
42144;SDS011;27813;43.516;11.890;2023-06-26T06:51:31;4.55;;;2.80;;
42144;SDS011;27813;43.516;11.890;2023-06-26T06:55:35;4.10;;;2.95;;
42144;SDS011;27813;43.516;11.890;2023-06-26T06:59:40;3.55;;;2.85;;
42144;SDS011;27813;43.516;11.890;2023-06-26T07:03:45;5.18;;;3.30;;
42144;SDS011;27813;43.516;11.890;2023-06-26T07:07:50;8.50;;;3.35;;
42144;SDS011;27813;43.516;11.890;2023-06-26T07:11:55;5.35;;;3.60;;
42144;SDS011;27813;43.516;11.890;2023-06-26T07:15:59;4.65;;;3.17;;
42144;SDS011;27813;43.516;11.890;2023-06-26T07:20:04;5.60;;;3.28;;
42144;SDS011;27813;43.516;11.890;2023-06-26T07:24:12;3.95;;;3.03;;
42144;SDS011;27813;43.516;11.890;2023-06-26T07:28:16;5.53;;;3.30;;
42144;SDS011;27813;43.516;11.890;2023-06-26T07:32:20;4.35;;;3.00;;
42144;SDS011;27813;43.516;11.890;2023-06-26T07:36:25;3.38;;;2.60;;
42144;SDS011;27813;43.516;11.890;2023-06-26T07:40:29;4.07;;;3.00;;
42144;SDS011;27813;43.516;11.890;2023-06-26T07:44:34;4.15;;;3.15;;
42144;SDS011;27813;43.516;11.890;2023-06-26T07:48:39;4.05;;;3.30;;
42144;SDS011;27813;43.516;11.890;2023-06-26T07:52:44;4.60;;;3.17;;
42144;SDS011;27813;43.516;11.890;2023-06-26T08:05:44;3.55;;;3.00;;
42144;SDS011;27813;43.516;11.890;2023-06-26T08:09:49;4.22;;;3.30;;
42144;SDS011;27813;43.516;11.890;2023-06-26T08:13:53;5.13;;;3.60;;
42144;SDS011;27813;43.516;11.890;2023-06-26T08:17:58;4.95;;;3.13;;
42144;SDS011;27813;43.516;11.890;2023-06-26T08:22:02;3.05;;;2.55;;
42144;SDS011;27813;43.516;11.890;2023-06-26T08:26:07;3.80;;;2.90;;
42144;SDS011;27813;43.516;11.890;2023-06-26T08:30:12;3.67;;;2.97;;
42144;SDS011;27813;43.516;11.890;2023-06-26T08:34:16;4.03;;;2.47;;
42144;SDS011;27813;43.516;11.890;2023-06-26T08:38:21;3.45;;;2.90;;
42144;SDS011;27813;43.516;11.890;2023-06-26T08:42:25;4.20;;;3.20;;
42144;SDS011;27813;43.516;11.890;2023-06-26T08:46:30;4.18;;;3.10;;
42144;SDS011;27813;43.516;11.890;2023-06-26T08:50:36;4.13;;;3.33;;
42144;SDS011;27813;43.516;11.890;2023-06-26T08:54:45;3.55;;;3.20;;
42144;SDS011;27813;43.516;11.890;2023-06-26T08:58:54;4.40;;;3.10;;
42144;SDS011;27813;43.516;11.890;2023-06-26T09:02:59;3.72;;;3.22;;
42144;SDS011;27813;43.516;11.890;2023-06-26T09:07:05;3.55;;;3.20;;
42144;SDS011;27813;43.516;11.890;2023-06-26T09:11:09;5.00;;;3.38;;
42144;SDS011;27813;43.516;11.890;2023-06-26T09:15:14;3.53;;;2.72;;
42144;SDS011;27813;43.516;11.890;2023-06-26T09:19:22;4.15;;;3.35;;
42144;SDS011;27813;43.516;11.890;2023-06-26T09:23:26;3.78;;;2.78;;
42144;SDS011;27813;43.516;11.890;2023-06-26T09:27:31;3.58;;;3.03;;
42144;SDS011;27813;43.516;11.890;2023-06-26T09:31:36;3.83;;;3.17;;
42144;SDS011;27813;43.516;11.890;2023-06-26T09:35:44;3.20;;;2.90;;
42144;SDS011;27813;43.516;11.890;2023-06-26T09:39:51;3.85;;;3.35;;
42144;SDS011;27813;43.516;11.890;2023-06-26T09:43:57;4.20;;;3.25;;
42144;SDS011;27813;43.516;11.890;2023-06-26T09:48:06;4.05;;;3.35;;
42144;SDS011;27813;43.516;11.890;2023-06-26T09:52:15;3.53;;;3.05;;
42144;SDS011;27813;43.516;11.890;2023-06-26T09:56:20;4.10;;;3.30;;
42144;SDS011;27813;43.516;11.890;2023-06-26T10:00:25;3.30;;;2.83;;
42144;SDS011;27813;43.516;11.890;2023-06-26T10:04:29;3.95;;;2.85;;
42144;SDS011;27813;43.516;11.890;2023-06-26T10:08:34;4.20;;;3.05;;
42144;SDS011;27813;43.516;11.890;2023-06-26T10:12:43;4.28;;;3.40;;
42144;SDS011;27813;43.516;11.890;2023-06-26T10:16:52;4.47;;;3.00;;
42144;SDS011;27813;43.516;11.890;2023-06-26T10:21:02;3.92;;;3.05;;
42144;SDS011;27813;43.516;11.890;2023-06-26T10:25:08;3.72;;;3.00;;
42144;SDS011;27813;43.516;11.890;2023-06-26T10:29:14;3.05;;;2.75;;
42144;SDS011;27813;43.516;11.890;2023-06-26T10:33:21;3.25;;;2.78;;
42144;SDS011;27813;43.516;11.890;2023-06-26T10:37:42;3.03;;;2.60;;
42144;SDS011;27813;43.516;11.890;2023-06-26T10:41:51;3.38;;;2.95;;
42144;SDS011;27813;43.516;11.890;2023-06-26T10:46:08;3.67;;;3.30;;
42144;SDS011;27813;43.516;11.890;2023-06-26T10:50:28;3.75;;;3.33;;
42144;SDS011;27813;43.516;11.890;2023-06-26T10:54:34;3.15;;;2.80;;
42144;SDS011;27813;43.516;11.890;2023-06-26T10:58:43;4.78;;;3.28;;
42144;SDS011;27813;43.516;11.890;2023-06-26T11:02:50;3.20;;;2.88;;
42144;SDS011;27813;43.516;11.890;2023-06-26T11:07:03;3.53;;;2.85;;
42144;SDS011;27813;43.516;11.890;2023-06-26T11:16:09;4.30;;;3.40;;
42144;SDS011;27813;43.516;11.890;2023-06-26T11:20:16;3.13;;;2.83;;
42144;SDS011;27813;43.516;11.890;2023-06-26T11:24:21;3.35;;;2.70;;
42144;SDS011;27813;43.516;11.890;2023-06-26T11:28:27;3.30;;;3.00;;
42144;SDS011;27813;43.516;11.890;2023-06-26T11:32:35;3.53;;;3.17;;
42144;SDS011;27813;43.516;11.890;2023-06-26T11:36:41;3.17;;;2.88;;
42144;SDS011;27813;43.516;11.890;2023-06-26T11:40:49;3.17;;;2.72;;
42144;SDS011;27813;43.516;11.890;2023-06-26T11:44:56;4.18;;;3.78;;
42144;SDS011;27813;43.516;11.890;2023-06-26T11:49:04;4.57;;;2.90;;
42144;SDS011;27813;43.516;11.890;2023-06-26T11:53:14;3.53;;;3.13;;
42144;SDS011;27813;43.516;11.890;2023-06-26T11:57:21;3.72;;;2.67;;
42144;SDS011;27813;43.516;11.890;2023-06-26T12:01:27;3.40;;;2.92;;
42144;SDS011;27813;43.516;11.890;2023-06-26T12:05:58;3.85;;;3.00;;
42144;SDS011;27813;43.516;11.890;2023-06-26T12:10:04;4.82;;;3.08;;
42144;SDS011;27813;43.516;11.890;2023-06-26T12:14:10;3.95;;;3.10;;
42144;SDS011;27813;43.516;11.890;2023-06-26T12:18:20;4.35;;;2.63;;
42144;SDS011;27813;43.516;11.890;2023-06-26T12:22:35;3.50;;;3.20;;
42144;SDS011;27813;43.516;11.890;2023-06-26T12:26:58;3.42;;;3.00;;
42144;SDS011;27813;43.516;11.890;2023-06-26T12:31:16;4.00;;;2.80;;
42144;SDS011;27813;43.516;11.890;2023-06-26T12:35:22;3.08;;;2.78;;
42144;SDS011;27813;43.516;11.890;2023-06-26T12:39:27;3.80;;;3.30;;
42144;SDS011;27813;43.516;11.890;2023-06-26T12:43:31;3.88;;;3.08;;
42144;SDS011;27813;43.516;11.890;2023-06-26T12:47:42;3.03;;;2.72;;
42144;SDS011;27813;43.516;11.890;2023-06-26T12:51:49;3.20;;;2.90;;
42144;SDS011;27813;43.516;11.890;2023-06-26T12:55:55;4.75;;;3.30;;
42144;SDS011;27813;43.516;11.890;2023-06-26T13:00:00;3.83;;;2.90;;
42144;SDS011;27813;43.516;11.890;2023-06-26T13:04:06;4.20;;;3.22;;
42144;SDS011;27813;43.516;11.890;2023-06-26T13:08:13;3.25;;;2.92;;
42144;SDS011;27813;43.516;11.890;2023-06-26T13:12:20;3.47;;;3.10;;
42144;SDS011;27813;43.516;11.890;2023-06-26T13:16:25;3.50;;;2.90;;
42144;SDS011;27813;43.516;11.890;2023-06-26T13:20:32;3.40;;;2.70;;
42144;SDS011;27813;43.516;11.890;2023-06-26T13:24:37;3.83;;;3.10;;
42144;SDS011;27813;43.516;11.890;2023-06-26T13:28:41;3.85;;;2.90;;
42144;SDS011;27813;43.516;11.890;2023-06-26T13:32:45;3.38;;;3.00;;
42144;SDS011;27813;43.516;11.890;2023-06-26T13:36:50;4.07;;;3.00;;
42144;SDS011;27813;43.516;11.890;2023-06-26T13:40:57;3.72;;;3.00;;
42144;SDS011;27813;43.516;11.890;2023-06-26T13:45:04;3.45;;;3.13;;
42144;SDS011;27813;43.516;11.890;2023-06-26T13:49:28;3.17;;;2.88;;
42144;SDS011;27813;43.516;11.890;2023-06-26T13:53:33;4.60;;;3.15;;
42144;SDS011;27813;43.516;11.890;2023-06-26T13:57:41;3.33;;;2.90;;
42144;SDS011;27813;43.516;11.890;2023-06-26T14:01:45;5.10;;;3.20;;
42144;SDS011;27813;43.516;11.890;2023-06-26T14:05:50;3.22;;;2.85;;
42144;SDS011;27813;43.516;11.890;2023-06-26T14:10:21;3.33;;;3.03;;
42144;SDS011;27813;43.516;11.890;2023-06-26T14:14:26;3.60;;;3.22;;
42144;SDS011;27813;43.516;11.890;2023-06-26T14:18:32;3.40;;;3.10;;
42144;SDS011;27813;43.516;11.890;2023-06-26T14:22:38;3.00;;;2.70;;
42144;SDS011;27813;43.516;11.890;2023-06-26T14:26:43;3.78;;;3.40;;
42144;SDS011;27813;43.516;11.890;2023-06-26T14:30:48;3.80;;;3.10;;
42144;SDS011;27813;43.516;11.890;2023-06-26T14:34:52;3.40;;;3.10;;
42144;SDS011;27813;43.516;11.890;2023-06-26T14:38:57;3.90;;;3.30;;
42144;SDS011;27813;43.516;11.890;2023-06-26T14:43:04;4.07;;;3.22;;
42144;SDS011;27813;43.516;11.890;2023-06-26T14:47:09;3.95;;;2.97;;
42144;SDS011;27813;43.516;11.890;2023-06-26T14:51:13;5.80;;;3.13;;
42144;SDS011;27813;43.516;11.890;2023-06-26T14:55:18;4.65;;;3.15;;
42144;SDS011;27813;43.516;11.890;2023-06-26T14:59:23;3.35;;;3.03;;
42144;SDS011;27813;43.516;11.890;2023-06-26T15:17:08;3.90;;;3.10;;
42144;SDS011;27813;43.516;11.890;2023-06-26T15:21:12;3.92;;;2.92;;
42144;SDS011;27813;43.516;11.890;2023-06-26T15:25:21;3.75;;;3.30;;
42144;SDS011;27813;43.516;11.890;2023-06-26T15:30:23;2.92;;;2.60;;
42144;SDS011;27813;43.516;11.890;2023-06-26T15:34:28;3.75;;;3.35;;
42144;SDS011;27813;43.516;11.890;2023-06-26T15:38:32;3.53;;;3.00;;
42144;SDS011;27813;43.516;11.890;2023-06-26T15:43:06;4.20;;;2.95;;
42144;SDS011;27813;43.516;11.890;2023-06-26T15:47:26;4.20;;;3.30;;
42144;SDS011;27813;43.516;11.890;2023-06-26T15:51:31;3.40;;;3.00;;
42144;SDS011;27813;43.516;11.890;2023-06-26T15:55:40;3.35;;;2.97;;
42144;SDS011;27813;43.516;11.890;2023-06-26T15:59:46;3.65;;;3.20;;
42144;SDS011;27813;43.516;11.890;2023-06-26T16:04:17;3.22;;;2.90;;
42144;SDS011;27813;43.516;11.890;2023-06-26T16:08:22;3.75;;;2.58;;
42144;SDS011;27813;43.516;11.890;2023-06-26T16:12:27;3.95;;;3.20;;
42144;SDS011;27813;43.516;11.890;2023-06-26T16:16:32;3.15;;;2.85;;
42144;SDS011;27813;43.516;11.890;2023-06-26T16:20:40;4.35;;;2.97;;
42144;SDS011;27813;43.516;11.890;2023-06-26T16:24:45;3.38;;;2.90;;
42144;SDS011;27813;43.516;11.890;2023-06-26T16:29:33;3.53;;;3.03;;
42144;SDS011;27813;43.516;11.890;2023-06-26T16:33:37;3.17;;;2.88;;
42144;SDS011;27813;43.516;11.890;2023-06-26T16:37:43;3.70;;;3.03;;
42144;SDS011;27813;43.516;11.890;2023-06-26T16:41:49;3.42;;;2.90;;
42144;SDS011;27813;43.516;11.890;2023-06-26T16:45:57;5.45;;;3.10;;
42144;SDS011;27813;43.516;11.890;2023-06-26T16:50:06;4.00;;;3.05;;
42144;SDS011;27813;43.516;11.890;2023-06-26T16:54:11;3.15;;;2.85;;
42144;SDS011;27813;43.516;11.890;2023-06-26T16:58:16;2.95;;;2.58;;
42144;SDS011;27813;43.516;11.890;2023-06-26T17:02:22;3.25;;;2.90;;
42144;SDS011;27813;43.516;11.890;2023-06-26T17:06:27;3.85;;;3.38;;
42144;SDS011;27813;43.516;11.890;2023-06-26T17:10:34;4.18;;;3.13;;
42144;SDS011;27813;43.516;11.890;2023-06-26T17:14:39;3.33;;;2.70;;
42144;SDS011;27813;43.516;11.890;2023-06-26T17:18:45;3.42;;;2.90;;
42144;SDS011;27813;43.516;11.890;2023-06-26T17:22:49;3.58;;;3.03;;
42144;SDS011;27813;43.516;11.890;2023-06-26T17:26:54;4.28;;;3.40;;
42144;SDS011;27813;43.516;11.890;2023-06-26T17:30:59;5.10;;;3.78;;
42144;SDS011;27813;43.516;11.890;2023-06-26T17:35:04;6.10;;;5.50;;
42144;SDS011;27813;43.516;11.890;2023-06-26T17:39:13;6.20;;;5.60;;
42144;SDS011;27813;43.516;11.890;2023-06-26T17:43:17;7.03;;;6.43;;
42144;SDS011;27813;43.516;11.890;2023-06-26T17:47:24;9.73;;;5.75;;
42144;SDS011;27813;43.516;11.890;2023-06-26T17:51:31;5.00;;;4.38;;
42144;SDS011;27813;43.516;11.890;2023-06-26T17:55:36;5.15;;;4.65;;
42144;SDS011;27813;43.516;11.890;2023-06-26T17:59:40;4.60;;;3.50;;
42144;SDS011;27813;43.516;11.890;2023-06-26T18:03:45;3.97;;;3.08;;
42144;SDS011;27813;43.516;11.890;2023-06-26T18:07:50;4.68;;;3.28;;
42144;SDS011;27813;43.516;11.890;2023-06-26T18:12:07;3.35;;;3.03;;
42144;SDS011;27813;43.516;11.890;2023-06-26T18:16:12;4.63;;;4.03;;
42144;SDS011;27813;43.516;11.890;2023-06-26T18:20:17;3.72;;;3.30;;
42144;SDS011;27813;43.516;11.890;2023-06-26T18:24:21;4.82;;;3.28;;
42144;SDS011;27813;43.516;11.890;2023-06-26T18:28:27;4.60;;;3.17;;
42144;SDS011;27813;43.516;11.890;2023-06-26T18:32:35;4.35;;;3.00;;
42144;SDS011;27813;43.516;11.890;2023-06-26T18:36:40;3.90;;;3.40;;
42144;SDS011;27813;43.516;11.890;2023-06-26T18:40:45;4.70;;;3.28;;
42144;SDS011;27813;43.516;11.890;2023-06-26T18:44:52;4.38;;;3.83;;
42144;SDS011;27813;43.516;11.890;2023-06-26T18:49:04;4.30;;;3.47;;
42144;SDS011;27813;43.516;11.890;2023-06-26T18:53:12;4.55;;;3.60;;
42144;SDS011;27813;43.516;11.890;2023-06-26T18:57:17;5.03;;;3.70;;
42144;SDS011;27813;43.516;11.890;2023-06-26T19:01:22;5.95;;;4.55;;
42144;SDS011;27813;43.516;11.890;2023-06-26T19:05:32;5.65;;;3.50;;
42144;SDS011;27813;43.516;11.890;2023-06-26T19:09:41;5.70;;;3.20;;
42144;SDS011;27813;43.516;11.890;2023-06-26T19:13:45;4.35;;;3.40;;
42144;SDS011;27813;43.516;11.890;2023-06-26T19:17:51;5.75;;;3.92;;
42144;SDS011;27813;43.516;11.890;2023-06-26T19:22:00;10.95;;;6.70;;
42144;SDS011;27813;43.516;11.890;2023-06-26T19:26:05;4.03;;;3.38;;
42144;SDS011;27813;43.516;11.890;2023-06-26T19:30:11;4.78;;;4.18;;
42144;SDS011;27813;43.516;11.890;2023-06-26T19:34:26;4.93;;;3.40;;
42144;SDS011;27813;43.516;11.890;2023-06-26T19:38:34;4.60;;;3.53;;
42144;SDS011;27813;43.516;11.890;2023-06-26T19:42:42;4.47;;;3.10;;
42144;SDS011;27813;43.516;11.890;2023-06-26T19:46:49;5.53;;;3.10;;
42144;SDS011;27813;43.516;11.890;2023-06-26T19:50:59;4.30;;;3.13;;
42144;SDS011;27813;43.516;11.890;2023-06-26T19:55:11;5.63;;;3.25;;
42144;SDS011;27813;43.516;11.890;2023-06-26T19:59:15;3.55;;;2.95;;
42144;SDS011;27813;43.516;11.890;2023-06-26T20:03:23;9.27;;;3.63;;
42144;SDS011;27813;43.516;11.890;2023-06-26T20:07:27;3.85;;;3.30;;
42144;SDS011;27813;43.516;11.890;2023-06-26T20:11:33;8.02;;;5.82;;
42144;SDS011;27813;43.516;11.890;2023-06-26T20:15:39;4.57;;;3.50;;
42144;SDS011;27813;43.516;11.890;2023-06-26T20:19:45;3.88;;;3.30;;
42144;SDS011;27813;43.516;11.890;2023-06-26T20:23:53;4.90;;;3.35;;
42144;SDS011;27813;43.516;11.890;2023-06-26T20:27:59;4.03;;;3.10;;
42144;SDS011;27813;43.516;11.890;2023-06-26T20:32:10;3.78;;;3.13;;
42144;SDS011;27813;43.516;11.890;2023-06-26T20:36:15;4.20;;;3.25;;
42144;SDS011;27813;43.516;11.890;2023-06-26T20:40:24;4.25;;;3.33;;
42144;SDS011;27813;43.516;11.890;2023-06-26T20:44:44;3.65;;;2.80;;
42144;SDS011;27813;43.516;11.890;2023-06-26T20:48:49;4.10;;;3.53;;
42144;SDS011;27813;43.516;11.890;2023-06-26T20:52:54;4.28;;;3.22;;
42144;SDS011;27813;43.516;11.890;2023-06-26T20:57:03;5.03;;;3.45;;
42144;SDS011;27813;43.516;11.890;2023-06-26T21:01:12;4.78;;;3.78;;
42144;SDS011;27813;43.516;11.890;2023-06-26T21:05:17;5.72;;;3.83;;
42144;SDS011;27813;43.516;11.890;2023-06-26T21:09:36;5.88;;;3.47;;
42144;SDS011;27813;43.516;11.890;2023-06-26T21:13:41;4.00;;;3.13;;
42144;SDS011;27813;43.516;11.890;2023-06-26T21:17:50;8.32;;;4.85;;
42144;SDS011;27813;43.516;11.890;2023-06-26T21:21:56;4.57;;;3.40;;
42144;SDS011;27813;43.516;11.890;2023-06-26T21:26:00;4.95;;;3.15;;
42144;SDS011;27813;43.516;11.890;2023-06-26T21:30:06;5.93;;;3.63;;
42144;SDS011;27813;43.516;11.890;2023-06-26T21:34:12;4.93;;;3.70;;
42144;SDS011;27813;43.516;11.890;2023-06-26T21:38:42;6.28;;;3.50;;
42144;SDS011;27813;43.516;11.890;2023-06-26T21:42:48;5.60;;;3.42;;
42144;SDS011;27813;43.516;11.890;2023-06-26T21:47:02;5.13;;;3.05;;
42144;SDS011;27813;43.516;11.890;2023-06-26T21:51:09;6.55;;;3.67;;
42144;SDS011;27813;43.516;11.890;2023-06-26T21:55:15;5.10;;;3.40;;
42144;SDS011;27813;43.516;11.890;2023-06-26T21:59:21;4.65;;;3.45;;
42144;SDS011;27813;43.516;11.890;2023-06-26T22:03:26;5.25;;;3.88;;
42144;SDS011;27813;43.516;11.890;2023-06-26T22:07:34;5.53;;;3.60;;
42144;SDS011;27813;43.516;11.890;2023-06-26T22:12:03;4.57;;;3.33;;
42144;SDS011;27813;43.516;11.890;2023-06-26T22:16:12;4.50;;;3.58;;
42144;SDS011;27813;43.516;11.890;2023-06-26T22:20:17;6.75;;;4.25;;
42144;SDS011;27813;43.516;11.890;2023-06-26T22:24:22;4.55;;;3.63;;
42144;SDS011;27813;43.516;11.890;2023-06-26T22:28:26;6.90;;;4.35;;
42144;SDS011;27813;43.516;11.890;2023-06-26T22:32:31;4.35;;;3.67;;
42144;SDS011;27813;43.516;11.890;2023-06-26T22:36:36;6.75;;;3.80;;
42144;SDS011;27813;43.516;11.890;2023-06-26T22:40:40;5.15;;;3.67;;
42144;SDS011;27813;43.516;11.890;2023-06-26T22:44:48;5.97;;;3.58;;
42144;SDS011;27813;43.516;11.890;2023-06-26T22:49:25;4.30;;;3.47;;
42144;SDS011;27813;43.516;11.890;2023-06-26T22:53:55;5.13;;;3.53;;
42144;SDS011;27813;43.516;11.890;2023-06-26T22:58:00;4.72;;;3.63;;
42144;SDS011;27813;43.516;11.890;2023-06-26T23:02:05;5.50;;;3.63;;
42144;SDS011;27813;43.516;11.890;2023-06-26T23:06:09;4.97;;;3.63;;
42144;SDS011;27813;43.516;11.890;2023-06-26T23:10:14;4.68;;;3.60;;
42144;SDS011;27813;43.516;11.890;2023-06-26T23:14:20;5.80;;;3.75;;
42144;SDS011;27813;43.516;11.890;2023-06-26T23:18:24;4.95;;;3.90;;
42144;SDS011;27813;43.516;11.890;2023-06-26T23:22:29;6.22;;;4.53;;
42144;SDS011;27813;43.516;11.890;2023-06-26T23:26:34;5.25;;;3.60;;
